Time;durP1;ratioP1;P1;durP2;ratioP2;P2;SDS_P1;SDS_P2;PMS_P1;PMS_P2;Temp;Humidity;BMP_temperature;BMP_pressure;BME280_temperature;BME280_humidity;BME280_pressure;Samples;Min_cycle;Max_cycle;Signal;HPM_P1;HPM_P2
2021/11/26 00:02:22;;;;;;;0.40;0.30;;;2.70;93.10;;;;;;4937174;29;20494;-79
2021/11/26 00:04:49;;;;;;;0.30;0.20;;;2.70;93.10;;;;;;4928816;29;20032;-79
2021/11/26 00:07:16;;;;;;;0.75;0.40;;;2.70;93.10;;;;;;4926031;29;20046;-79
2021/11/26 00:09:42;;;;;;;0.25;0.20;;;2.70;93.10;;;;;;4922235;29;20462;-78
2021/11/26 00:12:08;;;;;;;0.60;0.43;;;2.70;93.10;;;;;;4925975;29;20039;-78
2021/11/26 00:14:35;;;;;;;1.13;0.40;;;2.70;93.10;;;;;;4901503;29;20066;-78
2021/11/26 00:17:03;;;;;;;0.15;0.15;;;2.80;93.10;;;;;;4926272;29;20091;-78
2021/11/26 00:19:30;;;;;;;0.32;0.20;;;2.80;93.30;;;;;;4886015;29;20137;-78
2021/11/26 00:21:57;;;;;;;0.20;0.20;;;2.80;93.00;;;;;;4885753;29;20047;-79
2021/11/26 00:24:23;;;;;;;0.60;0.38;;;2.80;93.00;;;;;;4925181;29;20040;-78
2021/11/26 00:26:49;;;;;;;0.40;0.22;;;2.80;93.10;;;;;;4925651;29;20425;-78
2021/11/26 00:29:16;;;;;;;0.30;0.30;;;2.80;93.00;;;;;;4933509;29;20487;-78
2021/11/26 00:31:42;;;;;;;0.93;0.22;;;2.90;93.10;;;;;;4921119;29;20036;-78
2021/11/26 00:34:09;;;;;;;0.20;0.20;;;2.90;93.10;;;;;;4923242;29;20072;-79
2021/11/26 00:36:36;;;;;;;0.77;0.45;;;2.90;93.10;;;;;;4926970;29;20063;-79
2021/11/26 00:39:04;;;;;;;0.25;0.25;;;2.90;93.00;;;;;;4936848;29;20036;-79
2021/11/26 00:41:30;;;;;;;0.55;0.40;;;2.90;93.00;;;;;;4941104;29;20043;-79
2021/11/26 00:43:56;;;;;;;0.32;0.30;;;3.00;93.00;;;;;;4892495;29;20055;-77
2021/11/26 00:46:22;;;;;;;0.63;0.47;;;3.10;93.00;;;;;;4892624;29;20132;-79
2021/11/26 00:48:48;;;;;;;1.10;0.43;;;3.00;93.00;;;;;;4894688;29;20372;-78
2021/11/26 00:51:14;;;;;;;0.90;0.40;;;3.00;93.30;;;;;;4926983;29;20095;-78
2021/11/26 00:53:40;;;;;;;0.65;0.40;;;3.00;93.00;;;;;;4927593;29;20083;-78
2021/11/26 00:56:06;;;;;;;2.10;0.45;;;3.00;93.00;;;;;;4926274;29;20039;-79
2021/11/26 00:58:32;;;;;;;0.30;0.30;;;3.10;93.00;;;;;;4925378;29;20546;-78
2021/11/26 01:00:58;;;;;;;0.52;0.20;;;3.00;92.90;;;;;;4924928;29;20040;-78
2021/11/26 01:03:23;;;;;;;0.73;0.40;;;3.10;93.00;;;;;;4892350;29;20917;-78
2021/11/26 01:05:50;;;;;;;0.38;0.25;;;3.00;92.90;;;;;;4937508;29;20028;-78
2021/11/26 01:08:17;;;;;;;0.30;0.30;;;3.10;93.20;;;;;;4939035;29;20590;-78
2021/11/26 01:10:44;;;;;;;0.20;0.20;;;3.10;93.00;;;;;;4924788;29;20068;-78
2021/11/26 01:13:10;;;;;;;1.17;0.40;;;3.10;93.00;;;;;;4890965;29;20052;-78
2021/11/26 01:15:39;;;;;;;0.40;0.30;;;3.20;93.00;;;;;;4925462;29;20040;-78
2021/11/26 01:18:05;;;;;;;0.63;0.30;;;3.20;93.00;;;;;;4919303;29;20043;-78
2021/11/26 01:20:33;;;;;;;0.30;0.30;;;3.10;92.90;;;;;;4919565;29;20133;-78
2021/11/26 01:22:59;;;;;;;0.35;0.30;;;3.10;92.90;;;;;;4904522;29;20044;-78
2021/11/26 01:25:26;;;;;;;0.40;0.25;;;3.20;93.00;;;;;;4924759;29;20486;-78
2021/11/26 01:27:52;;;;;;;0.75;0.45;;;3.20;93.00;;;;;;4920343;29;20157;-79
2021/11/26 01:30:24;;;;;;;0.40;0.35;;;3.30;93.00;;;;;;4920257;29;20068;-78
2021/11/26 01:32:51;;;;;;;0.50;0.45;;;3.30;93.00;;;;;;4899877;29;20044;-78
2021/11/26 01:35:17;;;;;;;1.23;0.50;;;3.30;92.90;;;;;;4906972;29;20392;-78
2021/11/26 01:37:43;;;;;;;0.50;0.20;;;3.40;92.90;;;;;;4922219;29;20040;-78
2021/11/26 01:40:10;;;;;;;0.60;0.30;;;3.30;92.90;;;;;;4902029;29;20043;-78
2021/11/26 01:42:35;;;;;;;1.40;0.50;;;3.40;92.90;;;;;;4919580;29;20040;-78
2021/11/26 01:45:01;;;;;;;0.57;0.32;;;3.40;92.80;;;;;;4898445;29;20044;-78
2021/11/26 01:47:27;;;;;;;0.50;0.32;;;3.40;92.80;;;;;;4899556;29;20497;-78
2021/11/26 01:49:53;;;;;;;0.30;0.30;;;3.50;92.80;;;;;;4920890;29;20051;-79
2021/11/26 01:52:19;;;;;;;0.47;0.45;;;3.50;92.80;;;;;;4898139;29;20127;-78
2021/11/26 01:54:45;;;;;;;0.30;0.30;;;3.50;92.80;;;;;;4901287;29;20118;-79
2021/11/26 01:57:10;;;;;;;0.88;0.25;;;3.70;92.90;;;;;;4924894;29;20048;-79
2021/11/26 01:59:36;;;;;;;0.50;0.32;;;3.50;92.80;;;;;;4929943;29;20168;-79
2021/11/26 02:02:02;;;;;;;0.45;0.40;;;3.60;92.80;;;;;;4898358;29;20036;-79
2021/11/26 02:04:28;;;;;;;0.20;0.20;;;3.60;92.80;;;;;;4896744;29;20086;-79
2021/11/26 02:06:54;;;;;;;0.15;0.15;;;3.60;92.80;;;;;;4924445;29;20039;-79
2021/11/26 02:09:19;;;;;;;0.30;0.20;;;3.60;92.80;;;;;;4916115;29;20116;-79
2021/11/26 02:11:45;;;;;;;0.30;0.20;;;3.60;92.80;;;;;;4915611;29;20063;-79
2021/11/26 02:14:12;;;;;;;0.63;0.15;;;3.60;92.80;;;;;;4916239;29;20096;-79
2021/11/26 02:16:46;;;;;;;0.22;0.20;;;3.60;92.80;;;;;;4898275;29;20059;-79
2021/11/26 02:19:12;;;;;;;0.10;0.10;;;3.60;92.80;;;;;;4916142;29;20123;-79
2021/11/26 02:21:40;;;;;;;0.20;0.17;;;3.70;92.90;;;;;;4915665;29;20033;-79
2021/11/26 02:24:06;;;;;;;0.15;0.10;;;3.70;92.90;;;;;;4919652;29;20399;-79
2021/11/26 02:26:38;;;;;;;0.03;0.03;;;3.70;92.90;;;;;;4917151;29;20051;-79
2021/11/26 02:29:04;;;;;;;;;;;3.80;92.90;;;;;;4921020;29;20046;-79
2021/11/26 02:31:30;;;;;;;0.38;0.13;;;3.80;92.80;;;;;;4900785;29;20242;-80
2021/11/26 02:33:55;;;;;;;0.05;0.05;;;3.80;92.80;;;;;;4932717;29;20099;-79
2021/11/26 02:36:21;;;;;;;0.20;0.20;;;3.80;92.80;;;;;;4900998;29;20123;-79
2021/11/26 02:38:47;;;;;;;0.15;0.10;;;3.90;92.80;;;;;;4921566;29;20024;-79
2021/11/26 02:41:12;;;;;;;0.50;0.20;;;3.90;92.80;;;;;;4919937;29;20090;-79
2021/11/26 02:43:38;;;;;;;0.43;0.20;;;3.80;92.70;;;;;;4933508;29;20048;-80
2021/11/26 02:46:04;;;;;;;0.20;0.20;;;4.00;92.70;;;;;;4918564;29;20586;-80
2021/11/26 02:48:30;;;;;;;0.47;0.25;;;4.00;92.70;;;;;;4929703;29;20478;-80
2021/11/26 02:50:56;;;;;;;0.10;0.10;;;4.10;92.70;;;;;;4900943;29;20092;-80
2021/11/26 02:53:21;;;;;;;1.00;0.30;;;4.10;92.60;;;;;;4885000;29;20078;-79
2021/11/26 02:55:49;;;;;;;0.50;0.47;;;4.10;92.60;;;;;;4928117;29;20446;-80
2021/11/26 02:58:15;;;;;;;0.50;0.30;;;4.20;92.60;;;;;;4916733;29;20044;-80
2021/11/26 03:00:44;;;;;;;0.30;0.20;;;4.20;92.60;;;;;;4928881;29;20044;-80
2021/11/26 03:03:10;;;;;;;1.40;0.60;;;4.20;92.60;;;;;;4900473;29;20084;-80
2021/11/26 03:05:36;;;;;;;0.70;0.30;;;4.20;92.60;;;;;;4900538;29;20044;-80
2021/11/26 03:08:02;;;;;;;0.38;0.38;;;4.30;92.60;;;;;;4917754;29;20036;-79
2021/11/26 03:10:29;;;;;;;0.60;0.45;;;4.30;92.60;;;;;;4900586;29;20040;-80
2021/11/26 03:13:03;;;;;;;0.38;0.38;;;4.30;92.60;;;;;;4885857;29;20052;-79
2021/11/26 03:15:30;;;;;;;0.63;0.30;;;4.30;92.70;;;;;;4903046;29;20047;-79
2021/11/26 03:17:57;;;;;;;0.68;0.38;;;4.30;92.60;;;;;;4900934;29;20036;-79
2021/11/26 03:20:25;;;;;;;0.30;0.30;;;4.30;92.60;;;;;;4896123;29;20317;-79
2021/11/26 03:22:51;;;;;;;0.20;0.20;;;4.30;92.60;;;;;;4899579;29;20037;-79
2021/11/26 03:25:18;;;;;;;1.27;0.57;;;4.40;92.70;;;;;;4900467;29;20036;-79
2021/11/26 03:27:45;;;;;;;0.73;0.32;;;4.30;92.70;;;;;;4918674;29;20395;-80
2021/11/26 03:30:14;;;;;;;0.40;0.40;;;4.30;92.70;;;;;;4918881;29;20039;-79
2021/11/26 03:32:41;;;;;;;0.30;0.30;;;4.30;92.70;;;;;;4918431;29;20039;-79
2021/11/26 03:35:07;;;;;;;0.60;0.60;;;4.30;92.70;;;;;;4899468;29;20039;-79
2021/11/26 03:37:34;;;;;;;0.40;0.40;;;4.30;92.70;;;;;;4933665;29;20119;-79
2021/11/26 03:40:02;;;;;;;0.30;0.30;;;4.30;92.80;;;;;;4900111;29;20096;-79
2021/11/26 03:42:28;;;;;;;1.25;0.30;;;4.30;92.80;;;;;;4894789;29;20043;-79
2021/11/26 03:44:54;;;;;;;0.47;0.47;;;4.30;92.80;;;;;;4931704;29;20052;-79
2021/11/26 03:47:19;;;;;;;0.32;0.32;;;4.30;92.80;;;;;;4898078;29;20046;-80
2021/11/26 03:49:45;;;;;;;0.98;0.50;;;4.30;92.80;;;;;;4921034;29;20126;-79
2021/11/26 03:52:11;;;;;;;0.50;0.43;;;4.40;92.80;;;;;;4918397;29;20031;-79
2021/11/26 03:54:40;;;;;;;0.85;0.38;;;4.40;93.10;;;;;;4917131;29;20043;-79
2021/11/26 03:57:05;;;;;;;0.90;0.50;;;4.40;92.80;;;;;;4902941;29;20131;-79
2021/11/26 03:59:31;;;;;;;0.30;0.30;;;4.30;92.80;;;;;;4884399;29;20550;-80
2021/11/26 04:01:57;;;;;;;0.68;0.47;;;4.30;92.80;;;;;;4884607;29;20040;-80
2021/11/26 04:04:23;;;;;;;0.40;0.40;;;4.40;92.90;;;;;;4900828;29;20047;-79
2021/11/26 04:06:48;;;;;;;0.45;0.45;;;4.40;92.80;;;;;;4917246;29;20043;-80
2021/11/26 04:09:14;;;;;;;1.45;0.50;;;4.40;92.80;;;;;;4917049;29;20036;-80
2021/11/26 04:11:40;;;;;;;0.63;0.40;;;4.40;92.80;;;;;;4900919;29;20048;-79
2021/11/26 04:14:05;;;;;;;0.50;0.50;;;4.40;92.80;;;;;;4899650;29;20060;-79
2021/11/26 04:16:33;;;;;;;0.73;0.50;;;4.40;92.80;;;;;;4900403;29;20498;-80
2021/11/26 04:18:59;;;;;;;0.65;0.43;;;4.40;92.80;;;;;;4904612;29;20028;-79
2021/11/26 04:21:24;;;;;;;0.35;0.35;;;4.40;92.80;;;;;;4900305;29;20024;-80
2021/11/26 04:23:50;;;;;;;0.52;0.30;;;4.40;92.80;;;;;;4916534;29;20040;-79
2021/11/26 04:26:16;;;;;;;0.47;0.30;;;4.50;92.80;;;;;;4916669;29;20040;-80
2021/11/26 04:28:42;;;;;;;0.30;0.30;;;4.40;92.80;;;;;;4883728;29;20040;-80
2021/11/26 04:31:08;;;;;;;0.30;0.30;;;4.50;92.80;;;;;;4900545;29;20032;-79
2021/11/26 04:33:34;;;;;;;0.30;0.30;;;4.50;92.80;;;;;;4900727;29;20047;-80
2021/11/26 04:36:00;;;;;;;0.70;0.35;;;4.50;92.80;;;;;;4899053;29;20052;-80
2021/11/26 04:38:26;;;;;;;0.82;0.30;;;4.50;92.80;;;;;;4916135;29;20028;-80
2021/11/26 04:40:52;;;;;;;0.75;0.30;;;4.50;92.80;;;;;;4899194;29;20051;-80
2021/11/26 04:43:18;;;;;;;0.55;0.40;;;4.60;92.80;;;;;;4916208;29;20096;-79
2021/11/26 04:45:44;;;;;;;0.22;0.20;;;4.60;92.80;;;;;;4897241;29;20040;-79
2021/11/26 04:48:09;;;;;;;0.35;0.20;;;4.50;92.80;;;;;;4925881;29;20043;-80
2021/11/26 04:50:35;;;;;;;0.45;0.20;;;4.70;92.80;;;;;;4932567;29;20071;-79
2021/11/26 04:53:01;;;;;;;1.17;0.20;;;4.70;92.80;;;;;;4898886;29;20127;-80
2021/11/26 04:55:27;;;;;;;0.10;0.10;;;4.70;92.80;;;;;;4899286;29;20041;-79
2021/11/26 04:57:53;;;;;;;0.20;0.20;;;4.70;92.80;;;;;;4898932;29;20036;-80
2021/11/26 05:00:20;;;;;;;0.10;0.10;;;4.70;92.80;;;;;;4883212;29;20028;-80
2021/11/26 05:02:46;;;;;;;0.20;0.13;;;4.70;92.80;;;;;;4899355;29;20060;-80
2021/11/26 05:05:13;;;;;;;0.32;0.13;;;4.70;92.80;;;;;;4917082;29;20431;-80
2021/11/26 05:07:38;;;;;;;0.35;0.20;;;4.60;92.70;;;;;;4910906;29;20060;-80
2021/11/26 05:10:06;;;;;;;0.30;0.20;;;4.70;92.80;;;;;;4919379;29;20040;-80
2021/11/26 05:12:36;;;;;;;0.10;0.10;;;4.70;92.80;;;;;;4917627;29;20028;-79
2021/11/26 05:15:03;;;;;;;0.20;0.20;;;4.60;92.80;;;;;;4917226;29;20509;-80
2021/11/26 05:17:29;;;;;;;0.10;0.10;;;4.60;92.80;;;;;;4925802;29;20035;-79
2021/11/26 05:19:55;;;;;;;0.20;0.10;;;4.60;92.80;;;;;;4898844;29;20475;-80
2021/11/26 05:22:21;;;;;;;0.32;0.20;;;4.60;92.90;;;;;;4916144;29;20039;-80
2021/11/26 05:24:47;;;;;;;0.10;0.10;;;4.50;92.90;;;;;;4898784;29;20036;-80
2021/11/26 05:27:12;;;;;;;0.35;0.10;;;4.60;92.90;;;;;;4899624;29;20103;-79
2021/11/26 05:29:38;;;;;;;0.73;0.20;;;4.50;92.90;;;;;;4917596;29;20047;-80
2021/11/26 05:32:04;;;;;;;0.20;0.20;;;4.50;92.90;;;;;;4930716;29;20051;-80
2021/11/26 05:34:30;;;;;;;0.10;0.10;;;4.50;93.20;;;;;;4931597;29;20051;-80
2021/11/26 05:36:56;;;;;;;0.43;0.10;;;4.60;93.00;;;;;;4916623;29;20040;-80
2021/11/26 05:39:21;;;;;;;0.40;0.20;;;4.50;93.00;;;;;;4883661;29;20028;-80
2021/11/26 05:41:47;;;;;;;0.20;0.20;;;4.40;92.90;;;;;;4898836;29;20127;-80
2021/11/26 05:44:13;;;;;;;0.10;0.10;;;4.50;93.00;;;;;;4916183;29;20115;-80
2021/11/26 05:46:39;;;;;;;0.10;0.10;;;4.50;93.00;;;;;;4916009;29;20032;-80
2021/11/26 05:49:04;;;;;;;0.38;0.20;;;4.40;92.90;;;;;;4898692;29;20043;-80
2021/11/26 05:51:30;;;;;;;0.52;0.20;;;4.50;92.90;;;;;;4898722;29;20059;-80
2021/11/26 05:53:56;;;;;;;0.65;0.20;;;4.50;92.90;;;;;;4882968;29;20101;-80
2021/11/26 05:56:22;;;;;;;0.10;0.10;;;4.50;93.00;;;;;;4883038;29;20036;-80
2021/11/26 05:58:50;;;;;;;0.45;0.30;;;4.40;92.90;;;;;;4932130;29;20437;-79
2021/11/26 06:01:16;;;;;;;0.28;0.20;;;4.40;92.90;;;;;;4898431;29;20039;-80
2021/11/26 06:03:42;;;;;;;0.17;0.17;;;4.50;93.00;;;;;;4915798;29;20036;-81
2021/11/26 06:06:16;;;;;;;1.08;0.22;;;4.50;92.90;;;;;;4915384;29;20044;-80
2021/11/26 06:08:42;;;;;;;0.40;0.20;;;4.50;92.90;;;;;;4901549;29;20042;-81
2021/11/26 06:11:08;;;;;;;0.75;0.50;;;4.50;92.90;;;;;;4898164;29;20036;-81
2021/11/26 06:13:33;;;;;;;0.15;0.15;;;4.40;92.90;;;;;;4901816;29;20045;-81
2021/11/26 06:15:59;;;;;;;1.42;0.30;;;4.50;92.90;;;;;;4901662;29;20048;-81
2021/11/26 06:18:25;;;;;;;0.60;0.30;;;4.50;92.90;;;;;;4886192;29;20126;-81
2021/11/26 06:20:51;;;;;;;0.40;0.40;;;4.40;93.20;;;;;;4903354;29;20058;-81
2021/11/26 06:23:16;;;;;;;0.90;0.60;;;4.50;92.90;;;;;;4934063;29;20486;-80
2021/11/26 06:25:42;;;;;;;0.40;0.40;;;4.50;92.90;;;;;;4932953;29;20067;-81
2021/11/26 06:28:08;;;;;;;1.50;0.55;;;4.50;92.90;;;;;;4885736;29;20043;-81
2021/11/26 06:30:34;;;;;;;0.73;0.47;;;4.50;92.90;;;;;;4901576;29;20048;-80
2021/11/26 06:33:00;;;;;;;0.95;0.50;;;4.50;92.90;;;;;;4900939;29;20044;-80
2021/11/26 06:35:25;;;;;;;0.77;0.40;;;4.40;92.90;;;;;;4930603;29;20043;-80
2021/11/26 06:37:53;;;;;;;0.70;0.38;;;4.40;93.00;;;;;;4900279;29;20479;-81
2021/11/26 06:40:20;;;;;;;0.52;0.43;;;4.40;93.00;;;;;;4930029;29;20043;-81
2021/11/26 06:42:47;;;;;;;0.60;0.57;;;4.40;93.00;;;;;;4930183;29;20036;-80
2021/11/26 06:45:13;;;;;;;0.45;0.45;;;4.40;93.00;;;;;;4932979;29;20131;-80
2021/11/26 06:47:41;;;;;;;0.93;0.47;;;4.40;93.00;;;;;;4928565;29;20031;-80
2021/11/26 06:50:08;;;;;;;0.63;0.50;;;4.50;93.00;;;;;;4929766;29;20382;-80
2021/11/26 06:52:34;;;;;;;1.23;0.60;;;4.40;92.90;;;;;;4929036;29;20101;-80
2021/11/26 06:55:02;;;;;;;1.50;0.60;;;4.50;93.00;;;;;;4932433;29;20044;-80
2021/11/26 06:57:27;;;;;;;0.73;0.43;;;4.50;93.00;;;;;;4901165;29;20119;-80
2021/11/26 06:59:54;;;;;;;1.23;0.80;;;4.40;92.90;;;;;;4885442;29;20555;-84
2021/11/26 07:02:21;;;;;;;1.70;0.50;;;4.50;93.00;;;;;;4901774;29;20032;-80
2021/11/26 07:04:48;;;;;;;1.85;0.73;;;4.50;92.90;;;;;;4903902;29;20528;-80
2021/11/26 07:07:13;;;;;;;0.70;0.50;;;4.40;92.90;;;;;;4917713;29;20067;-81
2021/11/26 07:09:39;;;;;;;1.00;0.70;;;4.50;92.90;;;;;;4900719;29;20060;-80
2021/11/26 07:12:09;;;;;;;1.15;0.68;;;4.50;92.90;;;;;;4925547;29;20028;-81
2021/11/26 07:14:39;;;;;;;1.23;0.80;;;4.50;92.90;;;;;;4935002;29;20052;-80
2021/11/26 07:17:05;;;;;;;2.08;0.80;;;4.50;92.90;;;;;;4919201;29;20123;-81
2021/11/26 07:19:31;;;;;;;0.70;0.60;;;4.50;92.90;;;;;;4925904;29;20130;-81
2021/11/26 07:21:56;;;;;;;1.42;0.70;;;4.50;92.90;;;;;;4916602;29;20029;-81
2021/11/26 07:24:22;;;;;;;2.53;0.80;;;4.50;92.90;;;;;;4917435;29;20044;-81
2021/11/26 07:26:48;;;;;;;1.67;0.90;;;4.50;92.90;;;;;;4900911;29;20041;-81
2021/11/26 07:29:14;;;;;;;2.45;0.85;;;4.50;92.90;;;;;;4900949;29;20443;-81
2021/11/26 07:31:40;;;;;;;1.80;0.90;;;4.50;92.90;;;;;;4885131;29;20123;-81
2021/11/26 07:34:05;;;;;;;1.55;0.80;;;4.50;92.90;;;;;;4884657;29;20044;-80
2021/11/26 07:36:31;;;;;;;2.63;1.10;;;4.50;92.90;;;;;;4917618;29;20544;-81
2021/11/26 07:38:57;;;;;;;2.67;1.10;;;4.60;93.00;;;;;;4917720;29;20482;-80
2021/11/26 07:41:23;;;;;;;2.42;1.30;;;4.50;92.90;;;;;;4924059;29;20076;-81
2021/11/26 07:43:49;;;;;;;2.53;1.10;;;4.50;92.90;;;;;;4911746;29;20056;-81
2021/11/26 07:46:14;;;;;;;4.07;1.00;;;4.50;92.90;;;;;;4917195;29;20047;-81
2021/11/26 07:48:41;;;;;;;2.80;1.20;;;4.50;92.90;;;;;;4901979;29;20390;-81
2021/11/26 07:51:06;;;;;;;4.35;1.38;;;4.60;92.90;;;;;;4901992;29;20092;-81
2021/11/26 07:53:32;;;;;;;2.65;1.40;;;4.50;92.90;;;;;;4919674;29;20040;-82
2021/11/26 07:55:59;;;;;;;2.63;1.20;;;4.50;92.90;;;;;;4885743;29;20591;-80
2021/11/26 07:58:24;;;;;;;3.55;1.50;;;4.50;92.90;;;;;;4905016;29;20036;-81
2021/11/26 08:00:50;;;;;;;2.67;1.48;;;4.50;92.90;;;;;;4902719;29;20475;-81
2021/11/26 08:03:18;;;;;;;3.83;1.40;;;4.50;92.90;;;;;;4887108;29;20079;-81
2021/11/26 08:05:44;;;;;;;4.30;1.30;;;4.50;92.90;;;;;;4887300;29;20036;-81
2021/11/26 08:08:10;;;;;;;2.33;1.20;;;4.50;92.90;;;;;;4918421;29;20048;-80
2021/11/26 08:10:37;;;;;;;2.67;1.42;;;4.60;93.00;;;;;;4888021;29;20044;-81
2021/11/26 08:13:04;;;;;;;3.17;1.30;;;4.50;92.90;;;;;;4902743;29;20063;-78
2021/11/26 08:15:32;;;;;;;2.92;1.42;;;4.50;92.90;;;;;;4889436;29;20099;-80
2021/11/26 08:17:59;;;;;;;2.90;1.33;;;4.50;92.90;;;;;;4925579;29;20048;-80
2021/11/26 08:20:26;;;;;;;4.70;1.50;;;4.50;92.90;;;;;;4924361;29;20043;-79
2021/11/26 08:22:53;;;;;;;3.75;1.25;;;4.50;92.90;;;;;;4902244;29;20037;-81
2021/11/26 08:25:21;;;;;;;3.40;1.50;;;4.50;92.90;;;;;;4904465;29;20067;-78
2021/11/26 08:27:47;;;;;;;3.05;1.48;;;4.60;92.90;;;;;;4902807;29;20039;-81
2021/11/26 08:30:14;;;;;;;4.20;1.40;;;4.60;92.90;;;;;;4887338;29;20028;-81
2021/11/26 08:32:39;;;;;;;3.20;1.55;;;4.60;92.80;;;;;;4898946;29;20451;-81
2021/11/26 08:35:06;;;;;;;4.15;1.80;;;4.70;92.80;;;;;;4897782;29;20073;-81
2021/11/26 08:37:32;;;;;;;4.10;1.75;;;4.70;92.80;;;;;;4883712;29;20040;-81
2021/11/26 08:39:58;;;;;;;3.10;1.60;;;4.70;92.80;;;;;;4925634;29;20043;-81
2021/11/26 08:42:24;;;;;;;3.75;1.60;;;4.70;92.70;;;;;;4914930;29;20495;-81
2021/11/26 08:44:50;;;;;;;4.80;1.77;;;4.70;92.70;;;;;;4924859;29;20095;-81
2021/11/26 08:47:16;;;;;;;3.03;1.50;;;4.70;92.70;;;;;;4914978;29;20043;-81
2021/11/26 08:49:42;;;;;;;4.95;1.85;;;4.70;92.70;;;;;;4918108;29;20046;-81
2021/11/26 08:52:08;;;;;;;5.43;1.48;;;4.70;92.70;;;;;;4883860;29;20119;-81
2021/11/26 08:54:35;;;;;;;3.92;1.83;;;4.70;92.70;;;;;;4897292;29;20531;-82
2021/11/26 08:57:01;;;;;;;5.40;1.60;;;4.80;92.70;;;;;;4917906;29;20494;-81
2021/11/26 08:59:27;;;;;;;4.63;2.10;;;4.80;92.70;;;;;;4936168;29;20050;-81
2021/11/26 09:01:54;;;;;;;4.90;1.73;;;4.80;92.70;;;;;;4885164;29;20042;-82
2021/11/26 09:04:22;;;;;;;4.45;1.92;;;4.70;92.60;;;;;;4898832;29;20542;-81
2021/11/26 09:06:51;;;;;;;4.43;2.22;;;4.70;92.60;;;;;;4882726;29;20036;-81
2021/11/26 09:09:17;;;;;;;5.43;2.10;;;4.80;92.60;;;;;;4912608;29;20044;-82
2021/11/26 09:11:43;;;;;;;5.78;2.20;;;4.80;92.60;;;;;;4898339;29;20123;-81
2021/11/26 09:14:09;;;;;;;7.95;2.40;;;4.70;92.60;;;;;;4913752;29;20139;-82
2021/11/26 09:16:35;;;;;;;7.47;2.47;;;4.80;92.60;;;;;;4914280;29;20032;-82
2021/11/26 09:19:02;;;;;;;4.10;1.85;;;4.80;92.50;;;;;;4898170;29;20060;-81
2021/11/26 09:21:28;;;;;;;6.00;1.88;;;4.80;92.50;;;;;;4898749;29;20119;-81
2021/11/26 09:23:55;;;;;;;6.53;2.42;;;4.80;92.50;;;;;;4884543;29;20079;-82
2021/11/26 09:26:21;;;;;;;6.78;2.45;;;4.90;92.50;;;;;;4898078;29;20044;-82
2021/11/26 09:28:47;;;;;;;6.10;2.20;;;4.80;92.50;;;;;;4913973;29;20187;-82
2021/11/26 09:31:13;;;;;;;10.57;2.67;;;4.80;92.50;;;;;;4913571;29;20127;-82
2021/11/26 09:33:39;;;;;;;5.20;2.22;;;4.80;92.50;;;;;;4913907;29;20048;-83
2021/11/26 09:36:07;;;;;;;5.85;1.92;;;4.80;92.40;;;;;;4914498;29;20375;-84
2021/11/26 09:38:34;;;;;;;8.63;2.40;;;4.80;92.40;;;;;;4932690;29;20045;-81
2021/11/26 09:41:01;;;;;;;5.78;2.22;;;4.70;92.40;;;;;;4898569;29;20028;-82
2021/11/26 09:43:27;;;;;;;6.70;2.20;;;4.80;92.40;;;;;;4882894;29;20042;-81
2021/11/26 09:45:53;;;;;;;5.25;1.92;;;4.70;92.40;;;;;;4916719;29;20048;-81
2021/11/26 09:48:19;;;;;;;3.88;1.88;;;4.80;92.40;;;;;;4901990;29;20036;-81
2021/11/26 09:50:45;;;;;;;3.78;1.88;;;4.80;92.40;;;;;;4900519;29;20407;-81
2021/11/26 09:53:21;;;;;;;5.38;2.17;;;4.80;92.40;;;;;;4886361;29;20058;-82
2021/11/26 09:55:51;;;;;;;5.00;2.13;;;4.80;92.30;;;;;;4886408;29;20029;-82
2021/11/26 09:58:19;;;;;;;7.00;2.22;;;4.80;92.30;;;;;;4886392;29;20032;-82
2021/11/26 10:00:45;;;;;;;5.13;2.30;;;4.80;92.30;;;;;;4929194;29;20104;-81
2021/11/26 10:03:11;;;;;;;4.78;1.63;;;4.90;92.30;;;;;;4916999;29;20043;-81
2021/11/26 10:05:38;;;;;;;5.40;1.50;;;4.90;92.30;;;;;;4920061;29;20075;-82
2021/11/26 10:08:04;;;;;;;4.75;1.70;;;4.90;92.20;;;;;;4917527;29;20098;-82
2021/11/26 10:10:34;;;;;;;4.13;1.70;;;5.00;92.20;;;;;;4933351;29;20031;-82
2021/11/26 10:13:09;;;;;;;2.95;1.40;;;5.00;92.20;;;;;;4918133;29;20036;-82
2021/11/26 10:15:40;;;;;;;3.00;1.50;;;5.00;92.10;;;;;;4903601;29;20521;-81
2021/11/26 10:18:12;;;;;;;3.38;1.20;;;5.00;92.10;;;;;;4886938;29;20032;-80
2021/11/26 10:20:51;;;;;;;2.80;1.27;;;5.10;92.10;;;;;;4930429;29;20050;-81
2021/11/26 10:23:19;;;;;;;3.22;1.40;;;5.20;92.00;;;;;;4902309;29;20171;-81
2021/11/26 10:25:45;;;;;;;6.18;1.77;;;5.20;92.00;;;;;;4886512;29;20486;-81
2021/11/26 10:28:11;;;;;;;4.15;1.83;;;5.30;91.90;;;;;;4901688;29;20036;-83
2021/11/26 10:30:47;;;;;;;5.70;2.05;;;5.30;91.90;;;;;;4903697;29;20044;-82
2021/11/26 10:33:17;;;;;;;3.80;1.70;;;5.40;91.80;;;;;;4913392;29;20137;-82
2021/11/26 10:35:48;;;;;;;5.05;1.70;;;5.40;91.70;;;;;;4902485;29;20043;-82
2021/11/26 10:38:22;;;;;;;6.15;2.10;;;5.40;91.60;;;;;;4886112;29;20028;-82
2021/11/26 10:40:53;;;;;;;3.95;1.95;;;5.50;91.60;;;;;;4901647;29;20111;-81
2021/11/26 10:43:26;;;;;;;3.22;1.58;;;5.60;91.60;;;;;;4885991;29;20046;-84
2021/11/26 10:46:03;;;;;;;5.10;1.70;;;5.80;91.60;;;;;;4903876;29;20048;-82
2021/11/26 10:51:41;;;;;;;5.35;1.85;;;5.70;91.40;;;;;;4924497;29;20097;-83
2021/11/26 10:59:35;;;;;;;4.70;1.73;;;5.70;91.30;;;;;;4904629;29;20426;-82
2021/11/26 11:02:00;;;;;;;5.25;1.88;;;5.60;91.30;;;;;;4918649;29;20036;-83
2021/11/26 11:04:31;;;;;;;4.63;1.92;;;5.60;91.20;;;;;;4896784;29;20048;-82
2021/11/26 11:07:12;;;;;;;5.95;2.22;;;5.60;91.30;;;;;;4897267;29;20048;-82
2021/11/26 11:09:54;;;;;;;5.90;1.63;;;5.50;91.20;;;;;;4907285;29;20080;-83
2021/11/26 11:12:30;;;;;;;4.13;2.13;;;5.60;91.20;;;;;;4891451;29;20044;-82
2021/11/26 11:15:06;;;;;;;5.80;1.85;;;5.60;91.20;;;;;;4881522;29;20471;-82
2021/11/26 11:17:32;;;;;;;4.15;1.75;;;5.60;91.10;;;;;;4881777;29;20176;-83
2021/11/26 11:20:06;;;;;;;5.10;1.60;;;5.70;91.10;;;;;;4896301;29;20101;-80
2021/11/26 11:22:33;;;;;;;3.90;1.63;;;5.70;91.10;;;;;;4886310;29;20061;-82
2021/11/26 11:25:00;;;;;;;6.20;1.90;;;5.70;91.00;;;;;;4915497;29;20044;-80
2021/11/26 11:27:26;;;;;;;4.28;1.80;;;5.80;91.00;;;;;;4881515;29;20104;-80
2021/11/26 11:29:53;;;;;;;3.38;1.70;;;5.80;91.00;;;;;;4896849;29;20072;-81
2021/11/26 11:32:19;;;;;;;4.80;1.70;;;5.80;91.00;;;;;;4880673;29;20107;-82
2021/11/26 11:34:46;;;;;;;2.92;1.63;;;6.00;90.90;;;;;;4906562;29;20071;-81
2021/11/26 11:37:17;;;;;;;5.82;2.15;;;5.90;90.80;;;;;;4916112;29;20036;-80
2021/11/26 11:39:46;;;;;;;3.75;1.63;;;6.00;90.70;;;;;;4899689;29;20037;-79
2021/11/26 11:42:23;;;;;;;4.80;1.75;;;6.00;90.70;;;;;;4924735;29;20071;-81
2021/11/26 11:44:56;;;;;;;4.40;1.90;;;6.00;90.70;;;;;;4920414;29;20043;-79
2021/11/26 11:47:24;;;;;;;5.53;2.10;;;6.00;90.70;;;;;;4919429;29;20131;-80
2021/11/26 11:49:50;;;;;;;3.60;1.77;;;6.00;90.70;;;;;;4885803;29;20043;-79
2021/11/26 11:52:16;;;;;;;3.65;1.90;;;5.90;90.70;;;;;;4917450;29;20072;-79
2021/11/26 11:54:46;;;;;;;4.32;1.83;;;6.00;90.70;;;;;;4900504;29;20076;-79
2021/11/26 11:57:27;;;;;;;4.13;1.50;;;6.00;90.70;;;;;;4919192;29;20035;-79
2021/11/26 12:00:11;;;;;;;5.32;1.83;;;6.10;90.60;;;;;;4927990;29;20134;-82
2021/11/26 12:02:36;;;;;;;4.72;1.95;;;6.10;90.50;;;;;;4900380;29;20062;-79
2021/11/26 12:05:02;;;;;;;4.15;1.77;;;6.10;90.50;;;;;;4901606;29;20494;-79
2021/11/26 12:07:30;;;;;;;6.43;2.45;;;6.10;90.40;;;;;;4922257;29;20115;-79
2021/11/26 12:10:08;;;;;;;6.38;2.10;;;6.00;90.40;;;;;;4929198;29;20122;-83
2021/11/26 12:12:48;;;;;;;4.90;1.75;;;5.90;90.30;;;;;;4933147;29;20052;-79
2021/11/26 12:15:32;;;;;;;5.72;2.28;;;5.90;90.40;;;;;;4886075;29;20056;-80
2021/11/26 12:18:04;;;;;;;3.42;1.55;;;5.90;90.40;;;;;;4930175;29;20035;-80
2021/11/26 12:20:30;;;;;;;2.75;1.55;;;5.70;90.50;;;;;;4919676;29;20036;-81
2021/11/26 12:23:01;;;;;;;3.50;1.60;;;5.70;90.50;;;;;;4899860;29;20052;-80
2021/11/26 12:25:37;;;;;;;5.25;1.85;;;5.60;90.60;;;;;;4918711;29;20123;-80
2021/11/26 12:28:07;;;;;;;4.32;1.63;;;5.60;90.60;;;;;;4918190;29;20038;-80
2021/11/26 12:30:35;;;;;;;5.03;1.90;;;5.60;90.70;;;;;;4919736;29;20028;-79
2021/11/26 12:33:15;;;;;;;3.53;1.70;;;5.50;90.70;;;;;;4925893;29;20860;-80
2021/11/26 12:35:40;;;;;;;3.28;1.38;;;5.40;90.70;;;;;;4927847;29;20035;-81
2021/11/26 12:38:07;;;;;;;3.58;1.50;;;5.30;90.80;;;;;;4916017;29;20050;-80
2021/11/26 12:40:33;;;;;;;4.32;1.70;;;5.30;90.80;;;;;;4901234;29;20032;-81
2021/11/26 12:43:01;;;;;;;2.70;1.67;;;5.30;90.90;;;;;;4914564;29;20043;-80
2021/11/26 12:45:34;;;;;;;5.50;1.80;;;5.20;91.00;;;;;;4915574;29;20521;-80
2021/11/26 12:48:05;;;;;;;5.43;2.13;;;5.10;91.00;;;;;;4885197;29;20378;-80
2021/11/26 12:53:13;;;;;;;3.13;1.83;;;5.10;91.10;;;;;;4902321;29;20562;-80
2021/11/26 12:55:54;;;;;;;3.17;1.70;;;5.00;91.10;;;;;;4925720;29;20099;-81
2021/11/26 12:58:20;;;;;;;2.72;1.67;;;5.00;91.20;;;;;;4917655;29;20037;-80
2021/11/26 13:00:59;;;;;;;2.45;1.70;;;4.90;91.50;;;;;;4903494;29;20036;-79
2021/11/26 13:03:26;;;;;;;5.55;1.75;;;4.90;91.20;;;;;;4886478;29;20032;-80
2021/11/26 13:05:55;;;;;;;3.10;1.70;;;4.80;91.20;;;;;;4899303;29;20443;-79
2021/11/26 13:08:21;;;;;;;4.05;1.83;;;4.80;91.30;;;;;;4884972;29;20047;-80
2021/11/26 13:10:47;;;;;;;4.00;1.63;;;4.90;91.30;;;;;;4916638;29;20040;-80